KFHR/FHR METAR and TAF weather

Enter ICAO airport designator
Station Type Date Time Source
KFHR METAR 2018/12/17 16:53 UTC NOAA

KFHR 171653Z AUTO 14012G20KT 10SM OVC012 09/07 A2987 RMK AO2 SLP116 T00890067


Station Type Date Time Source
KFHR Decoded METAR 2018/12/17 16:53 UTC NOAA

FRIDAY HARBOR AIRPORT, WA, United States (KFHR) 48-31N 123-02W 32M
Dec 17, 2018 - 11:53 AM EST / 2018.12.17 1653 UTC
Wind: from the SE (140 degrees) at 14 MPH (12 KT) gusting to 23 MPH (20 KT):0
Visibility: 10 mile(s):0
Sky conditions: overcast
Temperature: 48.0 F (8.9 C)
Dew Point: 44.1 F (6.7 C)
Relative Humidity: 86%
Pressure (altimeter): 29.87 in. Hg (1011 hPa)
ob: KFHR 171653Z AUTO 14012G20KT 10SM OVC012 09/07 A2987 RMK AO2 SLP116 T00890067
cycle: 17

Station Type Date Time Source
KFHR TAF UTC NOAA

Error!


Example: see airport list